Time;durP1;ratioP1;P1;durP2;ratioP2;P2;SDS_P1;SDS_P2;PMS_P1;PMS_P2;Temp;Humidity;BMP_temperature;BMP_pressure;BME280_temperature;BME280_humidity;BME280_pressure;Samples;Min_cycle;Max_cycle;Signal;HPM_P1;HPM_P2
2023/12/12 00:01:56;;;;;;;8.25;3.95;;;;;;;7.49;100.00;100799.44;6101083;23;20457;-77
2023/12/12 00:04:23;;;;;;;9.90;3.85;;;;;;;7.48;100.00;100798.69;6100641;23;20015;-77
2023/12/12 00:06:50;;;;;;;8.63;3.90;;;;;;;7.48;100.00;100806.63;6101392;23;20071;-77
2023/12/12 00:09:16;;;;;;;5.85;3.13;;;;;;;7.48;100.00;100809.28;6101276;23;20461;-77
2023/12/12 00:11:43;;;;;;;7.68;3.63;;;;;;;7.46;100.00;100800.25;6100765;23;20019;-77
2023/12/12 00:14:09;;;;;;;3.50;3.20;;;;;;;7.44;100.00;100805.22;6100929;23;20014;-77
2023/12/12 00:16:36;;;;;;;7.45;3.20;;;;;;;7.42;100.00;100796.94;6100486;23;20029;-77
2023/12/12 00:19:02;;;;;;;8.23;3.38;;;;;;;7.39;100.00;100803.06;6101119;23;20019;-77
2023/12/12 00:21:29;;;;;;;7.55;3.95;;;;;;;7.35;100.00;100808.47;6100063;23;20018;-77
2023/12/12 00:23:56;;;;;;;7.55;3.28;;;;;;;7.32;100.00;100807.38;6100962;23;20081;-77
2023/12/12 00:26:23;;;;;;;10.50;3.85;;;;;;;7.27;100.00;100810.53;6074515;23;20027;-77
2023/12/12 00:28:49;;;;;;;6.13;3.30;;;;;;;7.26;100.00;100808.28;6100650;23;20018;-77
2023/12/12 00:31:16;;;;;;;9.35;4.55;;;;;;;7.23;100.00;100815.16;6101824;23;20087;-77
2023/12/12 00:33:42;;;;;;;10.07;3.00;;;;;;;7.21;100.00;100812.19;6052287;23;20070;-77
2023/12/12 00:36:09;;;;;;;4.75;3.00;;;;;;;7.21;100.00;100809.53;6101791;23;20015;-77
2023/12/12 00:38:36;;;;;;;6.88;3.00;;;;;;;7.21;100.00;100809.53;6101698;23;20019;-77
2023/12/12 00:41:04;;;;;;;4.68;3.22;;;;;;;7.21;100.00;100816.72;6102403;23;20760;-77
2023/12/12 00:43:30;;;;;;;6.15;3.17;;;;;;;7.20;100.00;100815.25;6100981;23;20019;-77
2023/12/12 00:45:57;;;;;;;10.23;3.25;;;;;;;7.18;100.00;100825.53;6102123;23;20019;-77
2023/12/12 00:48:23;;;;;;;6.38;3.65;;;;;;;7.17;100.00;100816.84;6101562;23;20783;-78
2023/12/12 00:50:50;;;;;;;9.27;3.30;;;;;;;7.15;100.00;100819.16;6102169;23;20021;-77
2023/12/12 00:53:17;;;;;;;4.82;3.00;;;;;;;7.12;100.00;100814.69;6101884;23;20015;-77
2023/12/12 00:55:43;;;;;;;9.30;3.00;;;;;;;7.10;100.00;100814.34;6101963;23;20023;-77
2023/12/12 00:58:10;;;;;;;9.18;3.10;;;;;;;7.07;100.00;100814.41;6101490;23;20026;-77
2023/12/12 01:00:36;;;;;;;7.35;2.95;;;;;;;7.06;100.00;100815.56;6102017;23;20037;-77
2023/12/12 01:03:03;;;;;;;5.88;2.67;;;;;;;7.03;100.00;100822.44;6102283;23;20021;-77
2023/12/12 01:05:29;;;;;;;3.72;2.70;;;;;;;7.00;100.00;100817.97;6101454;23;20057;-77
2023/12/12 01:07:56;;;;;;;6.88;2.83;;;;;;;6.97;100.00;100808.22;6102064;23;20185;-77
2023/12/12 01:10:22;;;;;;;8.45;2.90;;;;;;;6.93;100.00;100812.84;6100989;23;20019;-77
2023/12/12 01:12:49;;;;;;;10.35;2.97;;;;;;;6.89;100.00;100812.16;6102043;23;20015;-77
2023/12/12 01:15:16;;;;;;;5.03;2.58;;;;;;;6.85;100.00;100808.84;6101768;23;20025;-77
2023/12/12 01:17:42;;;;;;;7.75;3.00;;;;;;;6.80;100.00;100812.72;6076235;23;20057;-77
2023/12/12 01:20:10;;;;;;;7.00;3.13;;;;;;;6.73;100.00;100809.50;6102305;23;20038;-77
2023/12/12 01:22:37;;;;;;;15.93;3.08;;;;;;;6.66;100.00;100800.56;6101570;23;20026;-77
2023/12/12 01:25:05;;;;;;;9.45;3.03;;;;;;;6.61;100.00;100801.03;6101600;23;20062;-77
2023/12/12 01:27:31;;;;;;;3.42;2.70;;;;;;;6.55;100.00;100809.88;6101348;23;20109;-77
2023/12/12 01:29:58;;;;;;;6.18;3.03;;;;;;;6.50;100.00;100813.75;6102037;23;20015;-77
2023/12/12 01:32:25;;;;;;;9.70;3.47;;;;;;;6.45;100.00;100810.81;6101505;23;20022;-77
2023/12/12 01:34:51;;;;;;;3.63;3.05;;;;;;;6.40;100.00;100800.75;6102364;23;20102;-77
2023/12/12 01:37:18;;;;;;;6.75;3.13;;;;;;;6.34;100.00;100800.47;6076325;23;20054;-77
2023/12/12 01:39:45;;;;;;;5.28;3.00;;;;;;;6.30;100.00;100805.09;6101475;23;20062;-77
2023/12/12 01:42:11;;;;;;;8.25;3.35;;;;;;;6.26;100.00;100796.47;6075446;23;20900;-77
2023/12/12 01:44:38;;;;;;;4.90;2.80;;;;;;;6.22;100.00;100793.91;6101504;23;20050;-77
2023/12/12 01:47:04;;;;;;;6.10;3.53;;;;;;;6.17;100.00;100799.66;6101949;23;20029;-77
2023/12/12 01:49:31;;;;;;;7.47;3.40;;;;;;;6.13;100.00;100795.59;6075716;23;20014;-77
2023/12/12 01:51:58;;;;;;;4.80;2.90;;;;;;;6.08;100.00;100793.41;6101740;23;20549;-77
2023/12/12 01:54:25;;;;;;;4.82;3.28;;;;;;;6.01;100.00;100789.75;6100882;23;20026;-77
2023/12/12 01:56:53;;;;;;;7.88;3.45;;;;;;;5.98;100.00;100789.84;6102031;23;20022;-77
2023/12/12 01:59:21;;;;;;;6.00;3.58;;;;;;;5.93;100.00;100783.13;6101264;23;20026;-77
2023/12/12 02:01:52;;;;;;;6.32;3.50;;;;;;;5.89;100.00;100782.47;6076258;23;20045;-77
2023/12/12 02:04:20;;;;;;;6.45;3.53;;;;;;;5.86;100.00;100785.88;6101652;23;20102;-77
2023/12/12 02:06:49;;;;;;;12.45;4.20;;;;;;;5.82;100.00;100779.16;6101817;23;20353;-77
2023/12/12 02:09:16;;;;;;;9.13;4.22;;;;;;;5.76;100.00;100778.88;6101377;23;20015;-77
2023/12/12 02:11:42;;;;;;;9.18;4.43;;;;;;;5.72;100.00;100774.81;6101622;23;20162;-77
2023/12/12 02:14:10;;;;;;;4.72;4.05;;;;;;;5.65;100.00;100762.47;6101956;23;20023;-77
2023/12/12 02:16:37;;;;;;;4.38;4.00;;;;;;;5.58;100.00;100763.38;6101924;23;20037;-77
2023/12/12 02:19:03;;;;;;;10.27;4.22;;;;;;;5.54;100.00;100761.94;6101930;23;20074;-77
2023/12/12 02:21:30;;;;;;;6.65;4.10;;;;;;;5.52;100.00;100766.88;6101495;23;20018;-77
2023/12/12 02:23:57;;;;;;;6.10;4.30;;;;;;;5.46;100.00;100765.84;6104623;23;20026;-77
2023/12/12 02:26:23;;;;;;;11.68;4.15;;;;;;;5.41;100.00;100767.03;6105288;23;20043;-77
2023/12/12 02:28:50;;;;;;;10.48;4.25;;;;;;;5.38;100.00;100773.13;6105249;23;20074;-77
2023/12/12 02:31:17;;;;;;;5.35;4.35;;;;;;;5.32;100.00;100778.13;6102017;23;20018;-77
2023/12/12 02:33:43;;;;;;;5.95;4.15;;;;;;;5.30;100.00;100771.75;6101608;23;20025;-77
2023/12/12 02:36:10;;;;;;;4.32;3.90;;;;;;;5.26;100.00;100777.06;6076087;23;20019;-77
2023/12/12 02:38:37;;;;;;;5.22;4.57;;;;;;;5.22;100.00;100779.03;6100982;23;20026;-77
2023/12/12 02:41:03;;;;;;;9.68;5.30;;;;;;;5.18;100.00;100781.00;6101570;23;20025;-77
2023/12/12 02:43:30;;;;;;;6.95;5.05;;;;;;;5.16;100.00;100782.53;6100771;23;20126;-77
2023/12/12 02:45:57;;;;;;;6.43;4.45;;;;;;;5.13;100.00;100778.06;6101739;23;20419;-77
2023/12/12 02:48:23;;;;;;;10.82;4.80;;;;;;;5.09;100.00;100782.66;6101022;23;20019;-77
2023/12/12 02:50:50;;;;;;;7.90;4.80;;;;;;;5.01;100.00;100779.38;6101411;23;20027;-77
2023/12/12 02:53:17;;;;;;;9.10;5.18;;;;;;;4.98;100.00;100773.00;6100817;23;20029;-77
2023/12/12 02:55:43;;;;;;;8.32;5.10;;;;;;;4.94;100.00;100777.56;6101003;23;20529;-77
2023/12/12 02:58:10;;;;;;;10.35;4.90;;;;;;;4.92;100.00;100779.88;6101944;23;20029;-77
2023/12/12 03:00:37;;;;;;;8.15;5.20;;;;;;;4.89;100.00;100772.00;6100887;23;20054;-77
2023/12/12 03:03:03;;;;;;;7.53;4.97;;;;;;;4.85;100.00;100766.78;6075698;23;20023;-77
2023/12/12 03:05:30;;;;;;;10.13;5.20;;;;;;;4.83;100.00;100770.94;6100902;23;20520;-77
2023/12/12 03:07:57;;;;;;;15.50;4.88;;;;;;;4.82;100.00;100772.09;6101306;23;20090;-77
2023/12/12 03:10:23;;;;;;;9.30;5.70;;;;;;;4.75;100.00;100767.69;6100794;23;20102;-77
2023/12/12 03:12:50;;;;;;;5.97;5.38;;;;;;;4.71;100.00;100761.72;6101471;23;20026;-77
2023/12/12 03:15:17;;;;;;;12.82;5.85;;;;;;;4.69;100.00;100764.00;6101053;23;20018;-77
2023/12/12 03:17:44;;;;;;;7.95;5.28;;;;;;;4.65;100.00;100755.41;6100886;23;20090;-77
2023/12/12 03:20:11;;;;;;;9.85;5.88;;;;;;;4.62;100.00;100758.81;6101071;23;20021;-77
2023/12/12 03:22:37;;;;;;;13.13;5.70;;;;;;;4.62;100.00;100761.47;6100951;23;20023;-77
2023/12/12 03:25:05;;;;;;;12.50;6.22;;;;;;;4.60;100.00;100755.84;6101459;23;20095;-77
2023/12/12 03:27:31;;;;;;;9.15;5.70;;;;;;;4.50;100.00;100752.19;6101062;23;20067;-77
2023/12/12 03:29:58;;;;;;;10.38;6.10;;;;;;;4.50;100.00;100759.34;6101386;23;20023;-77
2023/12/12 03:32:25;;;;;;;12.63;5.57;;;;;;;4.47;100.00;100760.13;6100869;23;20023;-77
2023/12/12 03:34:52;;;;;;;14.32;6.93;;;;;;;4.43;100.00;100754.91;6101404;23;20152;-77
2023/12/12 03:37:18;;;;;;;7.53;6.10;;;;;;;4.44;100.00;100745.13;6100926;23;20047;-77
2023/12/12 03:39:45;;;;;;;9.68;6.25;;;;;;;4.44;100.00;100748.50;6100825;23;20061;-77
2023/12/12 03:42:12;;;;;;;11.60;6.47;;;;;;;4.47;100.00;100744.31;6101019;23;20083;-77
2023/12/12 03:44:38;;;;;;;10.13;6.82;;;;;;;4.49;100.00;100749.94;6101204;23;20022;-77
2023/12/12 03:47:04;;;;;;;8.50;6.20;;;;;;;4.50;100.00;100738.25;6101310;23;20014;-77
2023/12/12 03:49:31;;;;;;;7.85;6.47;;;;;;;4.51;100.00;100745.03;6100878;23;20019;-77
2023/12/12 03:51:58;;;;;;;10.02;6.20;;;;;;;4.52;100.00;100741.25;6101258;23;20015;-77
2023/12/12 03:54:25;;;;;;;13.13;7.10;;;;;;;4.52;100.00;100730.69;6100503;23;20334;-77
2023/12/12 03:56:52;;;;;;;13.02;7.05;;;;;;;4.53;100.00;100742.75;6101474;23;20098;-77
2023/12/12 03:59:18;;;;;;;8.88;5.93;;;;;;;4.55;100.00;100737.81;6075103;23;20029;-77
2023/12/12 04:01:48;;;;;;;13.93;7.53;;;;;;;4.56;100.00;100741.94;6100788;23;20107;-77
2023/12/12 04:04:18;;;;;;;12.18;6.88;;;;;;;4.55;100.00;100738.56;6100866;23;20011;-77
2023/12/12 04:06:48;;;;;;;10.18;6.30;;;;;;;4.58;100.00;100742.31;6101873;23;20101;-76
2023/12/12 04:09:15;;;;;;;11.80;6.53;;;;;;;4.61;100.00;100739.63;6102292;23;20042;-77
2023/12/12 04:11:42;;;;;;;14.07;7.30;;;;;;;4.63;100.00;100739.22;6101907;23;20086;-76
2023/12/12 04:14:08;;;;;;;15.60;7.38;;;;;;;4.64;100.00;100738.06;6102272;23;20025;-76
2023/12/12 04:16:35;;;;;;;13.90;7.43;;;;;;;4.65;100.00;100734.28;6101564;23;20357;-76
2023/12/12 04:19:01;;;;;;;9.30;7.10;;;;;;;4.67;100.00;100732.00;6102749;23;20015;-76
2023/12/12 04:21:29;;;;;;;14.82;7.22;;;;;;;4.69;100.00;100729.72;6102000;23;20019;-76
2023/12/12 04:23:56;;;;;;;11.65;7.25;;;;;;;4.71;100.00;100724.06;6102508;23;20460;-76
2023/12/12 04:26:22;;;;;;;15.68;8.20;;;;;;;4.72;100.00;100725.53;6076128;23;20030;-76
2023/12/12 04:28:49;;;;;;;11.60;7.32;;;;;;;4.74;100.00;100723.25;6102181;23;20057;-76
2023/12/12 04:31:17;;;;;;;13.27;8.05;;;;;;;4.76;100.00;100727.00;6101528;23;20029;-76
2023/12/12 04:33:44;;;;;;;18.90;8.70;;;;;;;4.79;100.00;100725.44;6101564;23;20022;-76
2023/12/12 04:36:16;;;;;;;12.25;8.30;;;;;;;4.79;100.00;100713.00;6102176;23;20460;-76
2023/12/12 04:38:43;;;;;;;20.98;9.27;;;;;;;4.81;100.00;100721.22;6101679;23;20022;-76
2023/12/12 04:41:09;;;;;;;20.77;9.73;;;;;;;4.83;100.00;100718.94;6102281;23;20025;-76
2023/12/12 04:43:36;;;;;;;17.92;9.60;;;;;;;4.84;100.00;100717.81;6101572;23;20074;-76
2023/12/12 04:46:03;;;;;;;19.55;10.05;;;;;;;4.85;100.00;100716.66;6102473;23;20448;-76
2023/12/12 04:48:30;;;;;;;21.45;10.38;;;;;;;4.84;100.00;100707.25;6101351;23;20386;-76
2023/12/12 04:50:56;;;;;;;14.88;9.43;;;;;;;4.84;100.00;100709.13;6102620;23;20018;-76
2023/12/12 04:53:23;;;;;;;21.08;10.93;;;;;;;4.84;100.00;100707.25;6101808;23;20015;-76
2023/12/12 04:55:50;;;;;;;17.35;10.35;;;;;;;4.85;100.00;100713.28;6102316;23;20026;-76
2023/12/12 04:58:16;;;;;;;15.02;10.07;;;;;;;4.85;100.00;100705.34;6076417;23;20015;-76
2023/12/12 05:00:43;;;;;;;15.80;9.27;;;;;;;4.83;100.00;100705.75;6102016;23;20098;-76
2023/12/12 05:03:10;;;;;;;18.92;11.35;;;;;;;4.83;100.00;100699.72;6101836;23;20015;-77
2023/12/12 05:05:36;;;;;;;21.13;11.70;;;;;;;4.85;100.00;100700.81;6101866;23;20019;-76
2023/12/12 05:08:03;;;;;;;19.60;10.80;;;;;;;4.87;100.00;100687.25;6101773;23;20071;-76
2023/12/12 05:10:30;;;;;;;16.85;10.35;;;;;;;4.88;100.00;100694.00;6101212;23;20102;-76
2023/12/12 05:12:56;;;;;;;21.17;10.77;;;;;;;4.84;100.00;100691.41;6102256;23;20432;-76
2023/12/12 05:15:23;;;;;;;17.85;10.98;;;;;;;4.81;100.00;100686.19;6101010;23;20082;-76
2023/12/12 05:17:50;;;;;;;18.85;10.00;;;;;;;4.76;100.00;100681.41;6075917;23;20015;-76
2023/12/12 05:20:16;;;;;;;17.73;10.48;;;;;;;4.71;100.00;100677.31;6101294;23;20383;-76
2023/12/12 05:22:43;;;;;;;17.35;10.55;;;;;;;4.69;100.00;100676.97;6101594;23;20023;-76
2023/12/12 05:25:10;;;;;;;19.95;10.35;;;;;;;4.66;100.00;100681.16;6102390;23;20465;-76
2023/12/12 05:27:36;;;;;;;16.38;9.77;;;;;;;4.64;100.00;100677.44;6101762;23;20018;-76
2023/12/12 05:30:03;;;;;;;17.90;10.93;;;;;;;4.61;100.00;100675.59;6101955;23;20023;-76
2023/12/12 05:32:30;;;;;;;17.95;10.80;;;;;;;4.59;100.00;100675.25;6101097;23;20402;-76
2023/12/12 05:34:56;;;;;;;25.35;10.35;;;;;;;4.56;100.00;100676.78;6102310;23;20015;-76
2023/12/12 05:37:23;;;;;;;17.92;10.07;;;;;;;4.54;100.00;100686.97;6075560;23;20774;-76
2023/12/12 05:39:50;;;;;;;15.82;9.80;;;;;;;4.48;100.00;100672.75;6102091;23;20025;-76
2023/12/12 05:42:16;;;;;;;19.40;10.18;;;;;;;4.48;100.00;100659.56;6101894;23;20026;-76
2023/12/12 05:44:43;;;;;;;21.90;9.85;;;;;;;4.48;100.00;100654.31;6101523;23;20397;-76
2023/12/12 05:47:09;;;;;;;19.05;10.32;;;;;;;4.51;100.00;100660.66;6101581;23;20019;-76
2023/12/12 05:49:36;;;;;;;16.52;9.30;;;;;;;4.51;100.00;100665.94;6101837;23;20026;-76
2023/12/12 05:52:04;;;;;;;16.27;10.02;;;;;;;4.50;100.00;100665.19;6102448;23;20419;-76
2023/12/12 05:54:30;;;;;;;17.83;10.40;;;;;;;4.52;100.00;100665.53;6104377;23;20015;-76
2023/12/12 05:56:57;;;;;;;15.25;10.40;;;;;;;4.53;100.00;100668.94;6107830;23;20074;-76
2023/12/12 05:59:24;;;;;;;15.23;9.98;;;;;;;4.57;100.00;100672.25;6080698;23;20023;-76
2023/12/12 06:01:50;;;;;;;14.20;10.00;;;;;;;4.59;100.00;100669.97;6052293;23;20030;-76
2023/12/12 06:04:17;;;;;;;21.17;10.23;;;;;;;4.62;100.00;100669.19;6076294;23;20019;-76
2023/12/12 06:06:44;;;;;;;16.35;10.60;;;;;;;4.66;100.00;100672.50;6075965;23;20113;-76
2023/12/12 06:09:11;;;;;;;16.88;10.68;;;;;;;4.70;100.00;100667.94;6101445;23;20450;-76
2023/12/12 06:11:38;;;;;;;23.02;10.90;;;;;;;4.73;100.00;100663.75;6101460;23;20019;-76
2023/12/12 06:14:05;;;;;;;18.42;11.00;;;;;;;4.78;100.00;100665.94;6102070;23;20030;-76
2023/12/12 06:16:33;;;;;;;19.73;11.20;;;;;;;4.81;100.00;100660.56;6100882;23;20022;-76
2023/12/12 06:19:04;;;;;;;21.65;11.65;;;;;;;4.84;100.00;100664.31;6101395;23;20023;-76
2023/12/12 06:21:32;;;;;;;24.60;11.50;;;;;;;4.85;100.00;100666.53;6101235;23;20469;-76
2023/12/12 06:24:03;;;;;;;22.48;11.30;;;;;;;4.86;100.00;100657.47;6101658;23;20015;-76
2023/12/12 06:26:31;;;;;;;23.05;11.10;;;;;;;4.88;100.00;100649.91;6071580;23;20457;-77
2023/12/12 06:28:57;;;;;;;20.48;11.13;;;;;;;4.91;100.00;100653.63;6101815;23;20027;-76
2023/12/12 06:31:24;;;;;;;21.95;10.50;;;;;;;4.92;100.00;100649.84;6101123;23;20098;-76
2023/12/12 06:33:52;;;;;;;22.48;11.05;;;;;;;4.93;100.00;100648.72;6076284;23;20023;-77
2023/12/12 06:36:19;;;;;;;24.58;11.02;;;;;;;4.93;100.00;100644.19;6101568;23;20015;-76
2023/12/12 06:38:45;;;;;;;23.42;10.93;;;;;;;4.95;100.00;100643.78;6101217;23;20026;-76
2023/12/12 06:41:12;;;;;;;25.17;11.25;;;;;;;4.96;100.00;100638.09;6101964;23;20055;-77
2023/12/12 06:43:39;;;;;;;36.65;11.07;;;;;;;4.97;100.00;100636.94;6101325;23;20460;-76
2023/12/12 06:46:07;;;;;;;23.40;10.23;;;;;;;4.99;100.00;100634.66;6101526;23;20026;-76
2023/12/12 06:48:34;;;;;;;21.75;11.02;;;;;;;5.00;100.00;100633.50;6076417;23;20023;-77
2023/12/12 06:51:02;;;;;;;31.45;11.48;;;;;;;5.03;100.00;100634.59;6102639;23;20019;-76
2023/12/12 06:53:28;;;;;;;34.10;11.13;;;;;;;5.04;100.00;100625.53;6101022;23;20445;-77
2023/12/12 06:55:55;;;;;;;31.35;10.98;;;;;;;5.07;100.00;100626.63;6101885;23;20021;-75
2023/12/12 06:58:24;;;;;;;21.98;10.73;;;;;;;5.08;100.00;100623.59;6100715;23;20019;-75
2023/12/12 07:00:51;;;;;;;20.25;11.13;;;;;;;5.09;100.00;100619.06;6101796;23;20019;-75
2023/12/12 07:03:18;;;;;;;27.23;10.52;;;;;;;5.11;100.00;100617.50;6101718;23;20015;-76
2023/12/12 07:05:45;;;;;;;23.23;10.55;;;;;;;5.14;100.00;100615.94;6101610;23;20075;-76
2023/12/12 07:08:12;;;;;;;35.38;10.65;;;;;;;5.16;100.00;100614.41;6101493;23;20022;-77
2023/12/12 07:10:38;;;;;;;31.50;10.27;;;;;;;5.17;100.00;100607.22;6102269;23;20073;-78
2023/12/12 07:13:05;;;;;;;32.78;11.27;;;;;;;5.18;100.00;100609.47;6104041;23;20451;-78
2023/12/12 07:15:49;;;;;;;23.55;10.68;;;;;;;5.20;100.00;100614.34;6102390;23;20086;-77
2023/12/12 07:18:16;;;;;;;30.50;10.10;;;;;;;5.21;100.00;100613.91;6101978;23;20035;-77
2023/12/12 07:20:43;;;;;;;20.60;10.57;;;;;;;5.22;100.00;100604.84;6101274;23;20015;-76
2023/12/12 07:23:09;;;;;;;17.50;9.50;;;;;;;5.26;100.00;100613.44;6101695;23;20026;-76
2023/12/12 07:25:36;;;;;;;24.27;9.32;;;;;;;5.28;100.00;100602.47;6101277;23;20449;-76
2023/12/12 07:28:03;;;;;;;24.98;9.88;;;;;;;5.31;100.00;100606.94;6100924;23;20027;-75
2023/12/12 07:30:29;;;;;;;26.23;9.77;;;;;;;5.34;100.00;100604.25;6100808;23;20393;-77
2023/12/12 07:32:57;;;;;;;31.35;10.20;;;;;;;5.36;100.00;100599.28;6102678;23;20019;-75
2023/12/12 07:35:24;;;;;;;27.48;8.82;;;;;;;5.41;100.00;100606.00;6101295;23;20015;-77
2023/12/12 07:37:51;;;;;;;21.95;9.02;;;;;;;5.43;100.00;100601.06;6101224;23;20023;-74
2023/12/12 07:40:17;;;;;;;29.60;9.35;;;;;;;5.46;100.00;100605.53;6100976;23;20015;-76
2023/12/12 07:42:45;;;;;;;17.65;8.70;;;;;;;5.49;100.00;100601.34;6100683;23;20046;-76
2023/12/12 07:45:12;;;;;;;18.98;8.30;;;;;;;5.52;100.00;100601.25;6075599;23;20019;-75
2023/12/12 07:47:38;;;;;;;23.60;8.43;;;;;;;5.55;100.00;100594.44;6075305;23;20026;-75
2023/12/12 07:50:10;;;;;;;16.67;8.50;;;;;;;5.58;100.00;100596.25;6077717;23;20050;-79
2023/12/12 07:52:37;;;;;;;20.25;8.32;;;;;;;5.61;100.00;100590.88;6101566;23;20455;-74
2023/12/12 07:55:04;;;;;;;18.02;7.88;;;;;;;5.65;100.00;100588.16;6101044;23;20025;-76
2023/12/12 07:57:32;;;;;;;17.98;8.23;;;;;;;5.68;100.00;100585.44;6100109;23;20023;-75
2023/12/12 07:59:59;;;;;;;13.57;7.70;;;;;;;5.70;100.00;100580.50;6100864;23;20428;-75
2023/12/12 08:02:27;;;;;;;13.77;7.80;;;;;;;5.73;100.00;100578.19;6100604;23;20019;-73
2023/12/12 08:04:53;;;;;;;18.77;8.30;;;;;;;5.77;100.00;100570.94;6101100;23;20034;-75
2023/12/12 08:07:21;;;;;;;19.35;8.88;;;;;;;5.80;100.00;100570.88;6100566;23;20031;-74
2023/12/12 08:09:47;;;;;;;16.10;8.48;;;;;;;5.84;100.00;100563.63;6101224;23;20119;-73
2023/12/12 08:12:14;;;;;;;15.77;8.25;;;;;;;5.87;100.00;100562.81;6100501;23;20479;-76
2023/12/12 08:14:41;;;;;;;15.23;8.40;;;;;;;5.90;100.00;100556.72;6101169;23;20637;-74
2023/12/12 08:17:10;;;;;;;13.25;8.07;;;;;;;5.93;100.00;100563.09;6102077;23;20023;-75
2023/12/12 08:19:38;;;;;;;20.50;8.43;;;;;;;5.94;100.00;100549.47;6101290;23;20015;-75
2023/12/12 08:22:04;;;;;;;20.23;8.52;;;;;;;5.97;100.00;100553.19;6101176;23;20475;-75
2023/12/12 08:24:31;;;;;;;15.15;8.20;;;;;;;5.99;100.00;100553.53;6075050;23;20014;-75
2023/12/12 08:26:57;;;;;;;14.00;9.10;;;;;;;6.00;100.00;100544.41;6100818;23;20102;-75
2023/12/12 08:29:25;;;;;;;18.45;8.82;;;;;;;6.02;100.00;100536.81;6100482;23;20015;-75
2023/12/12 08:31:54;;;;;;;18.48;9.52;;;;;;;6.02;100.00;100537.56;6101075;23;20050;-75
2023/12/12 08:34:21;;;;;;;21.83;9.73;;;;;;;6.03;100.00;100531.13;6100370;23;20022;-75
2023/12/12 08:36:48;;;;;;;21.75;9.30;;;;;;;6.06;100.00;100532.19;6100608;23;20412;-75
2023/12/12 08:39:14;;;;;;;26.52;10.18;;;;;;;6.07;100.00;100522.38;6075286;23;20495;-76
2023/12/12 08:41:41;;;;;;;19.55;9.73;;;;;;;6.12;100.00;100521.88;6100595;23;20289;-75
2023/12/12 08:44:07;;;;;;;27.08;10.45;;;;;;;6.15;100.00;100524.44;6100798;23;20018;-75
2023/12/12 08:46:34;;;;;;;27.17;10.13;;;;;;;6.18;100.00;100517.59;6100461;23;20019;-75
2023/12/12 08:49:01;;;;;;;24.55;10.50;;;;;;;6.21;100.00;100517.50;6101183;23;20019;-75
2023/12/12 08:51:28;;;;;;;34.22;10.70;;;;;;;6.24;100.00;100515.94;6101156;23;20428;-76
2023/12/12 08:53:54;;;;;;;21.05;9.95;;;;;;;6.24;100.00;100508.75;6102254;23;20015;-76
2023/12/12 08:56:21;;;;;;;25.80;9.80;;;;;;;6.27;100.00;100509.81;6101638;23;20426;-75
2023/12/12 08:58:51;;;;;;;23.70;10.30;;;;;;;6.29;100.00;100513.53;6102395;23;20015;-76
2023/12/12 09:01:18;;;;;;;25.40;10.45;;;;;;;6.31;100.00;100507.84;6101797;23;20015;-76
2023/12/12 09:03:45;;;;;;;23.67;9.57;;;;;;;6.34;100.00;100510.38;6102164;23;20019;-76
2023/12/12 09:06:12;;;;;;;27.63;9.57;;;;;;;6.38;100.00;100502.38;6101945;23;20053;-76
2023/12/12 09:08:42;;;;;;;20.42;10.68;;;;;;;6.43;100.00;100498.47;6101851;23;20102;-75
2023/12/12 09:11:10;;;;;;;32.53;9.65;;;;;;;6.48;100.00;100500.59;6102163;23;20488;-75
2023/12/12 09:13:44;;;;;;;24.27;9.65;;;;;;;6.53;100.00;100492.16;6102240;23;20015;-75
2023/12/12 09:16:11;;;;;;;25.30;9.48;;;;;;;6.57;100.00;100490.16;6101915;23;20023;-75
2023/12/12 09:18:37;;;;;;;24.08;8.98;;;;;;;6.61;100.00;100491.56;6101977;23;20019;-76
2023/12/12 09:21:06;;;;;;;28.60;8.93;;;;;;;6.66;100.00;100485.03;6076957;23;20479;-76
2023/12/12 09:23:33;;;;;;;25.65;9.25;;;;;;;6.70;100.00;100480.38;6101309;23;20067;-76
2023/12/12 09:25:59;;;;;;;26.65;9.30;;;;;;;6.73;100.00;100476.91;6102592;23;20029;-76
2023/12/12 09:28:26;;;;;;;25.05;9.15;;;;;;;6.76;100.00;100475.34;6101440;23;20082;-76
2023/12/12 09:30:52;;;;;;;22.13;8.60;;;;;;;6.77;100.00;100466.97;6102328;23;20025;-76
2023/12/12 09:33:19;;;;;;;28.20;9.07;;;;;;;6.80;100.00;100475.97;6101840;23;20058;-76
2023/12/12 09:35:46;;;;;;;16.58;7.85;;;;;;;6.82;100.00;100469.09;6077183;23;20027;-76
2023/12/12 09:38:12;;;;;;;33.65;8.00;;;;;;;6.86;100.00;100464.44;6103694;23;20019;-76
2023/12/12 09:40:39;;;;;;;21.92;7.25;;;;;;;6.89;100.00;100460.22;6103964;23;20019;-76
2023/12/12 09:43:10;;;;;;;14.75;7.28;;;;;;;6.93;100.00;100456.31;6106297;23;20011;-76
2023/12/12 09:45:44;;;;;;;22.90;6.85;;;;;;;6.97;100.00;100464.16;6106667;23;20079;-76
2023/12/12 09:48:12;;;;;;;19.45;6.68;;;;;;;7.01;100.00;100444.38;6102566;23;20094;-76
2023/12/12 09:50:41;;;;;;;19.80;7.07;;;;;;;7.07;100.00;100443.84;6103090;23;20334;-77
2023/12/12 09:53:08;;;;;;;19.55;6.93;;;;;;;7.08;100.00;100438.13;6102061;23;20015;-77
2023/12/12 09:55:35;;;;;;;19.20;6.95;;;;;;;7.11;100.00;100433.91;6101326;23;20027;-77
2023/12/12 09:58:02;;;;;;;18.70;6.60;;;;;;;7.12;100.00;100422.88;6102141;23;20025;-77
2023/12/12 10:00:28;;;;;;;22.75;6.95;;;;;;;7.15;100.00;100423.94;6101559;23;20022;-76
2023/12/12 10:02:58;;;;;;;21.95;7.32;;;;;;;7.15;100.00;100406.16;6101298;23;20015;-76
2023/12/12 10:05:30;;;;;;;31.10;6.28;;;;;;;7.15;100.00;100400.88;6101310;23;20019;-76
2023/12/12 10:07:57;;;;;;;25.90;6.75;;;;;;;7.19;100.00;100392.81;6101747;23;20071;-76
2023/12/12 10:10:34;;;;;;;15.05;6.03;;;;;;;7.22;100.00;100395.34;6101384;23;20019;-77
2023/12/12 10:13:00;;;;;;;14.15;6.30;;;;;;;7.26;100.00;100392.59;6101996;23;20014;-77
2023/12/12 10:15:27;;;;;;;22.35;5.72;;;;;;;7.29;100.00;100386.44;6101263;23;20500;-77
2023/12/12 10:17:58;;;;;;;16.63;5.88;;;;;;;7.32;100.00;100377.66;6102096;23;20026;-77
2023/12/12 10:20:27;;;;;;;21.42;6.25;;;;;;;7.35;100.00;100379.44;6101563;23;20086;-77
2023/12/12 10:22:57;;;;;;;20.23;6.32;;;;;;;7.39;100.00;100371.41;6102133;23;20054;-77
2023/12/12 10:25:24;;;;;;;17.73;6.03;;;;;;;7.42;100.00;100373.94;6101312;23;20019;-77
2023/12/12 10:27:52;;;;;;;16.88;5.25;;;;;;;7.44;100.00;100368.97;6101703;23;20030;-77
2023/12/12 10:30:21;;;;;;;20.05;5.97;;;;;;;7.48;100.00;100372.25;6101713;23;20106;-77
2023/12/12 10:32:53;;;;;;;19.95;6.10;;;;;;;7.50;100.00;100369.16;6102065;23;20034;-76
2023/12/12 10:35:21;;;;;;;17.90;6.22;;;;;;;7.53;100.00;100363.75;6101615;23;20330;-77
2023/12/12 10:37:49;;;;;;;14.35;5.90;;;;;;;7.55;100.00;100356.13;6076244;23;20011;-77
2023/12/12 10:40:21;;;;;;;22.48;6.53;;;;;;;7.60;100.00;100349.53;6101679;23;20102;-77
2023/12/12 10:42:49;;;;;;;17.95;5.75;;;;;;;7.64;100.00;100352.81;6101717;23;20018;-77
2023/12/12 10:45:16;;;;;;;23.02;6.28;;;;;;;7.66;100.00;100351.22;6101946;23;20410;-77
2023/12/12 10:47:47;;;;;;;16.52;5.07;;;;;;;7.68;100.00;100337.53;6076050;23;20469;-77
2023/12/12 10:50:16;;;;;;;27.95;6.18;;;;;;;7.73;100.00;100336.25;6101788;23;20818;-77
2023/12/12 10:52:47;;;;;;;15.02;5.97;;;;;;;7.77;100.00;100339.53;6076065;23;20019;-77
2023/12/12 10:55:15;;;;;;;;;;;;;;;7.80;100.00;100330.72;6102175;23;20047;-77
2023/12/12 10:57:43;;;;;;;17.35;5.72;;;;;;;7.83;100.00;100316.63;6101944;23;19921;-77
2023/12/12 11:00:16;;;;;;;20.83;5.85;;;;;;;7.85;100.00;100320.31;6101721;23;20026;-77
2023/12/12 11:02:46;;;;;;;17.13;5.95;;;;;;;7.89;100.00;100322.84;6101548;23;20018;-77
2023/12/12 11:05:15;;;;;;;23.38;6.28;;;;;;;7.93;100.00;100318.16;6101405;23;20082;-77
2023/12/12 11:07:46;;;;;;;18.95;5.55;;;;;;;7.98;100.00;100315.72;6101672;23;20026;-77
2023/12/12 11:10:19;;;;;;;18.80;5.63;;;;;;;8.06;100.00;100313.53;6101498;23;20019;-77
2023/12/12 11:12:56;;;;;;;15.27;5.72;;;;;;;8.12;100.00;100293.25;6101753;23;20153;-77
2023/12/12 11:15:26;;;;;;;16.50;6.15;;;;;;;8.17;100.00;100295.34;6101262;23;20102;-77
2023/12/12 11:17:52;;;;;;;17.00;6.20;;;;;;;8.25;100.00;100301.88;6101902;23;20043;-77